4XDZJ LLHZ-LLHZ

Flight info

Callsign 4XDZJ
Flight time 0h 18m
Altitude 800
Route BENQO1
Aircraft BE58/L-VGDW/C

Departure

Time 2026-04-17 16:10
Airport Herzliya Airport (LLHZ)

Arrival

Time 2026-04-17 16:28
Airport Herzliya Airport (LLHZ)
Time Latitude Longitude Altitude Speed Heading
2026-04-17 15:55 32.18248 34.82842 93 ft 0 kts 200°
2026-04-17 16:06 32.18247 34.82842 94 ft 1 kts 200°
2026-04-17 16:06 32.18203 34.82831 94 ft 12 kts 146°
2026-04-17 16:06 32.18152 34.82971 94 ft 24 kts 110°
2026-04-17 16:06 32.18081 34.83168 99 ft 26 kts 110°
2026-04-17 16:07 32.18018 34.83373 103 ft 29 kts 113°
2026-04-17 16:07 32.17949 34.83610 109 ft 32 kts 109°
2026-04-17 16:07 32.17901 34.83768 117 ft 12 kts 109°
2026-04-17 16:07 32.17882 34.83838 119 ft 6 kts 107°
2026-04-17 16:08 32.17880 34.83850 121 ft 1 kts 90°
2026-04-17 16:08 32.17880 34.83853 121 ft 0 kts 77°
2026-04-17 16:08 32.17881 34.83855 121 ft 0 kts 70°
2026-04-17 16:09 32.17915 34.83848 122 ft 3 kts 290°
2026-04-17 16:09 32.17917 34.83842 120 ft 12 kts 290°
2026-04-17 16:09 32.18073 34.83318 135 ft 109 kts 292°
2026-04-17 16:10 32.18613 34.82800 613 ft 118 kts 13°
2026-04-17 16:10 32.19421 34.83145 1140 ft 131 kts 21°
2026-04-17 16:10 32.19922 34.82498 1155 ft 146 kts 278°
2026-04-17 16:10 32.20375 34.81458 1202 ft 152 kts 310°
2026-04-17 16:11 32.21046 34.80515 1394 ft 149 kts 311°
2026-04-17 16:11 32.21741 34.79547 1394 ft 154 kts 311°
2026-04-17 16:11 32.22371 34.78661 1774 ft 130 kts 311°
2026-04-17 16:11 32.22926 34.77871 1987 ft 128 kts 310°
2026-04-17 16:12 32.23511 34.77027 1995 ft 138 kts 310°
2026-04-17 16:12 32.24136 34.76125 1998 ft 151 kts 310°
2026-04-17 16:12 32.24861 34.75087 2012 ft 174 kts 310°
2026-04-17 16:12 32.25667 34.73950 2011 ft 185 kts 311°
2026-04-17 16:13 32.26514 34.72764 2013 ft 191 kts 311°
2026-04-17 16:13 32.27384 34.71556 2010 ft 194 kts 311°
2026-04-17 16:13 32.28417 34.70550 2011 ft 194 kts 335°
2026-04-17 16:13 32.29687 34.69994 2011 ft 195 kts 340°
2026-04-17 16:14 32.32245 34.68908 2012 ft 196 kts 340°
2026-04-17 16:14 32.33512 34.68368 2015 ft 196 kts 340°
2026-04-17 16:14 32.34797 34.67828 2015 ft 196 kts 340°
2026-04-17 16:15 32.36085 34.67293 2016 ft 196 kts 341°
2026-04-17 16:15 32.37344 34.66784 2291 ft 183 kts 341°
2026-04-17 16:15 32.38455 34.66344 2702 ft 170 kts 342°
2026-04-17 16:15 32.39556 34.65919 3136 ft 164 kts 341°
2026-04-17 16:16 32.40638 34.65602 3562 ft 158 kts 358°
2026-04-17 16:16 32.41666 34.65998 3925 ft 161 kts 37°
2026-04-17 16:16 32.42313 34.67135 4008 ft 179 kts 76°
2026-04-17 16:16 32.42159 34.68621 4020 ft 190 kts 114°
2026-04-17 16:17 32.41578 34.70057 4021 ft 196 kts 116°
2026-04-17 16:17 32.40997 34.71536 4019 ft 200 kts 115°
2026-04-17 16:17 32.40422 34.73021 4019 ft 201 kts 115°
2026-04-17 16:17 32.39838 34.74529 4021 ft 202 kts 115°
2026-04-17 16:18 32.39323 34.76105 4020 ft 203 kts 109°
2026-04-17 16:18 32.38881 34.77667 4021 ft 204 kts 109°
2026-04-17 16:18 32.38408 34.79251 4020 ft 204 kts 110°
2026-04-17 16:18 32.37922 34.80830 4021 ft 204 kts 110°
2026-04-17 16:19 32.37450 34.82414 4020 ft 204 kts 107°
2026-04-17 16:19 32.37020 34.84009 4020 ft 203 kts 109°
2026-04-17 16:19 32.36556 34.85596 4020 ft 205 kts 109°
2026-04-17 16:19 32.36105 34.87191 4018 ft 205 kts 109°
2026-04-17 16:20 32.35659 34.88785 4018 ft 204 kts 109°
2026-04-17 16:20 32.35210 34.90389 4018 ft 204 kts 109°
2026-04-17 16:20 32.34764 34.91984 4018 ft 204 kts 109°
2026-04-17 16:20 32.34316 34.93577 4018 ft 204 kts 108°
2026-04-17 16:21 32.33870 34.95172 4018 ft 204 kts 108°
2026-04-17 16:21 32.33427 34.96747 4018 ft 204 kts 108°
2026-04-17 16:21 32.32782 34.98224 4005 ft 204 kts 135°
2026-04-17 16:21 32.31542 34.98999 4007 ft 202 kts 163°
2026-04-17 16:22 32.30191 34.99481 4010 ft 202 kts 165°
2026-04-17 16:22 32.28822 34.99853 3953 ft 204 kts 176°
2026-04-17 16:22 32.27368 34.99865 3713 ft 213 kts 182°
2026-04-17 16:22 32.25887 34.99812 3469 ft 218 kts 183°
2026-04-17 16:23 32.24363 34.99756 3221 ft 221 kts 183°
2026-04-17 16:23 32.22812 34.99698 3012 ft 223 kts 183°
2026-04-17 16:23 32.21279 34.99643 3007 ft 217 kts 183°
2026-04-17 16:23 32.19779 34.99591 3004 ft 214 kts 183°
2026-04-17 16:24 32.18302 34.99539 3001 ft 211 kts 183°
2026-04-17 16:24 32.16834 34.99488 2998 ft 211 kts 183°
2026-04-17 16:24 32.15369 34.99433 2996 ft 210 kts 183°
2026-04-17 16:24 32.13917 34.99293 2996 ft 210 kts 188°
2026-04-17 16:25 32.12520 34.98867 2992 ft 207 kts 207°
2026-04-17 16:25 32.11266 34.98043 2995 ft 206 kts 213°
2026-04-17 16:25 32.10033 34.97180 2995 ft 206 kts 213°
2026-04-17 16:25 32.08799 34.96311 2998 ft 206 kts 213°
2026-04-17 16:26 32.07645 34.95401 2778 ft 192 kts 228°
2026-04-17 16:26 32.06868 34.94134 1901 ft 187 kts 240°
2026-04-17 16:26 32.06151 34.93025 1232 ft 158 kts 226°
2026-04-17 16:26 32.05316 34.92307 891 ft 143 kts 214°
2026-04-17 16:27 32.04468 34.91755 724 ft 136 kts 212°
2026-04-17 16:27 32.03689 34.91240 574 ft 117 kts 211°
2026-04-17 16:27 32.02983 34.90779 415 ft 115 kts 211°
2026-04-17 16:27 32.02303 34.90340 291 ft 109 kts 211°
2026-04-17 16:28 32.01645 34.89913 140 ft 103 kts 210°
2026-04-17 16:28 32.01127 34.89580 117 ft 57 kts 208°
2026-04-17 16:28 32.00953 34.89485 117 ft 15 kts 143°
2026-04-17 16:28 32.00920 34.89550 115 ft 6 kts 119°
2026-04-17 16:29 32.00911 34.89569 115 ft 2 kts 117°
2026-04-17 16:29 32.00885 34.89625 114 ft 14 kts 118°
2026-04-17 16:29 32.00833 34.89742 113 ft 13 kts 121°
2026-04-17 16:29 32.00810 34.89790 112 ft 5 kts 118°
2026-04-17 16:30 32.00805 34.89803 114 ft 1 kts 117°